Ceres Airport


Codes: SWCZ/0
Name: Ceres Airport
City: Ceres
Country: Brazil
Elevation: 1962 ft.

Photos at Ceres Airport


   Photos courtesy of SpottingLog. You can add your own sightings and photos by signing up for a free trial today.



No photos found.

Weather at Ceres Airport


Time (UTC)DescriptionTempratureWindCloud coverageVisibilityPressureHumidity
26-Jun-2024 00:00Clear Sky25°C0 mph, S2%10000m1014hPa35%
26-Jun-2024 03:00Clear Sky22°C2 mph, E1%10000m1015hPa40%
26-Jun-2024 06:00Clear Sky19°C2 mph, SE0%10000m1016hPa48%
26-Jun-2024 09:00Clear Sky17°C2 mph, SE0%10000m1016hPa52%
26-Jun-2024 12:00Clear Sky25°C4 mph, E1%10000m1018hPa34%
26-Jun-2024 15:00Clear Sky32°C4 mph, N4%10000m1016hPa21%
26-Jun-2024 18:00Clear Sky33°C4 mph, NW4%10000m1012hPa19%
26-Jun-2024 21:00Clear Sky26°C2 mph, SE0%10000m1012hPa28%
27-Jun-2024 00:00Clear Sky22°C2 mph, W0%10000m1015hPa36%
27-Jun-2024 03:00Clear Sky21°C2 mph, S0%10000m1015hPa40%
27-Jun-2024 06:00Clear Sky19°C2 mph, S5%10000m1014hPa44%
27-Jun-2024 09:00Broken Clouds18°C2 mph, SE54%10000m1014hPa48%
27-Jun-2024 12:00Scattered Clouds25°C4 mph, SE38%10000m1016hPa32%
27-Jun-2024 15:00Clear Sky34°C2 mph, E0%10000m1013hPa19%
27-Jun-2024 18:00Clear Sky34°C4 mph, NW2%10000m1009hPa17%
27-Jun-2024 21:00Clear Sky27°C4 mph, NE4%10000m1010hPa26%
28-Jun-2024 00:00Few Clouds23°C2 mph, NW23%10000m1012hPa32%
28-Jun-2024 03:00Few Clouds21°C2 mph, SW11%10000m1012hPa37%
28-Jun-2024 06:00Few Clouds20°C2 mph, SE13%10000m1012hPa41%
28-Jun-2024 09:00Scattered Clouds18°C2 mph, SE32%10000m1013hPa44%
28-Jun-2024 12:00Scattered Clouds26°C2 mph, SE40%10000m1014hPa28%
28-Jun-2024 15:00Clear Sky34°C7 mph, N6%10000m1013hPa16%
28-Jun-2024 18:00Clear Sky35°C7 mph, N6%10000m1009hPa15%
28-Jun-2024 21:00Clear Sky28°C4 mph, N2%10000m1010hPa22%
29-Jun-2024 00:00Clear Sky23°C2 mph, W1%10000m1013hPa31%
29-Jun-2024 03:00Clear Sky22°C2 mph, S3%10000m1014hPa33%
29-Jun-2024 06:00Clear Sky20°C2 mph, S2%10000m1013hPa37%
29-Jun-2024 09:00Clear Sky19°C2 mph, E5%10000m1015hPa40%
29-Jun-2024 12:00Clear Sky26°C2 mph, E6%10000m1016hPa26%
29-Jun-2024 15:00Clear Sky35°C4 mph, W1%10000m1014hPa16%
29-Jun-2024 18:00Clear Sky35°C4 mph, W1%10000m1011hPa14%
29-Jun-2024 21:00Clear Sky28°C7 mph, SW3%10000m1011hPa20%
30-Jun-2024 00:00Clear Sky24°C2 mph, W2%10000m1014hPa27%
30-Jun-2024 03:00Clear Sky22°C2 mph, SE0%10000m1014hPa30%
30-Jun-2024 06:00Clear Sky20°C4 mph, SE0%10000m1013hPa33%
30-Jun-2024 09:00Clear Sky20°C2 mph, E0%10000m1013hPa34%
30-Jun-2024 12:00Clear Sky26°C7 mph, S0%10000m1015hPa25%
30-Jun-2024 15:00Clear Sky34°C7 mph, SE0%10000m1013hPa17%
30-Jun-2024 18:00Clear Sky35°C7 mph, N1%10000m1010hPa14%
30-Jun-2024 21:00Clear Sky28°C4 mph, N1%10000m1010hPa21%